createdAt,value
2019-05-07T00:02:04.112Z,69.00
2019-05-07T00:04:33.707Z,69.40
2019-05-07T00:07:03.802Z,69.40
2019-05-07T00:09:33.248Z,69.60
2019-05-07T00:12:05.052Z,69.80
2019-05-07T00:14:34.610Z,70.20
2019-05-07T00:17:04.733Z,70.30
2019-05-07T00:19:34.417Z,70.50
2019-05-07T00:22:04.177Z,70.60
2019-05-07T00:24:33.776Z,70.80
2019-05-07T00:27:03.326Z,71.00
2019-05-07T00:29:32.907Z,70.90
2019-05-07T00:32:03.054Z,71.40
2019-05-07T00:34:34.328Z,71.40
2019-05-07T00:37:08.094Z,71.90
2019-05-07T00:39:39.167Z,72.20
2019-05-07T00:42:12.576Z,72.50
2019-05-07T00:44:55.120Z,72.70
2019-05-07T00:47:24.976Z,72.70
2019-05-07T00:49:56.146Z,72.90
2019-05-07T00:52:26.753Z,73.10
2019-05-07T00:54:56.559Z,73.40
2019-05-07T00:57:26.170Z,73.80
2019-05-07T00:59:55.848Z,73.80
2019-05-07T01:02:25.604Z,73.90
2019-05-07T01:04:55.090Z,73.90
2019-05-07T01:07:24.656Z,74.00
2019-05-07T01:09:54.193Z,74.40
2019-05-07T01:12:23.732Z,72.60
2019-05-07T01:14:53.354Z,74.50
2019-05-07T01:17:22.983Z,74.80
2019-05-07T01:19:53.307Z,75.00
2019-05-07T01:22:23.075Z,75.10
2019-05-07T01:24:53.477Z,75.10
2019-05-07T01:27:23.312Z,75.20
2019-05-07T01:29:52.946Z,75.20
2019-05-07T01:32:36.477Z,75.10
2019-05-07T01:35:14.109Z,75.00
2019-05-07T01:37:43.711Z,75.10
2019-05-07T01:40:13.283Z,75.30
2019-05-07T01:42:42.965Z,75.30
2019-05-07T01:45:14.804Z,75.10
2019-05-07T01:47:44.503Z,75.10
2019-05-07T01:50:14.065Z,74.80
2019-05-07T01:52:43.881Z,75.10
2019-05-07T01:55:13.429Z,75.10
2019-05-07T01:57:49.695Z,75.30
2019-05-07T02:00:19.003Z,76.50
2019-05-07T02:02:56.216Z,75.80
2019-05-07T02:05:27.759Z,75.70
2019-05-07T02:07:58.787Z,76.00
2019-05-07T02:10:35.417Z,76.20
2019-05-07T02:13:05.370Z,76.70
2019-05-07T02:15:34.922Z,76.90
2019-05-07T02:18:04.510Z,77.00
2019-05-07T02:20:34.078Z,77.00
2019-05-07T02:23:04.000Z,77.30
2019-05-07T02:25:33.805Z,77.80
2019-05-07T02:28:03.197Z,77.50
2019-05-07T02:30:34.950Z,77.90
2019-05-07T02:33:04.211Z,78.00
2019-05-07T02:35:33.950Z,78.50
2019-05-07T02:38:05.305Z,78.60
2019-05-07T02:40:39.137Z,78.60
2019-05-07T02:43:08.753Z,78.90
2019-05-07T02:45:48.783Z,79.10
2019-05-07T02:48:23.523Z,79.10
2019-05-07T02:51:04.171Z,79.20
2019-05-07T02:53:37.808Z,79.60
2019-05-07T02:56:07.899Z,80.00
2019-05-07T02:58:37.462Z,79.90
2019-05-07T03:01:06.976Z,80.80
2019-05-07T03:03:36.593Z,80.00
2019-05-07T03:06:06.128Z,80.10
2019-05-07T03:08:35.856Z,80.10
2019-05-07T03:11:05.407Z,80.00
2019-05-07T03:13:35.026Z,80.10
2019-05-07T03:16:04.808Z,80.10
2019-05-07T03:18:34.413Z,80.10
2019-05-07T03:21:17.559Z,80.00
2019-05-07T03:23:53.779Z,80.80
2019-05-07T03:26:26.710Z,80.00
2019-05-07T03:29:03.663Z,80.00
2019-05-07T03:31:36.904Z,79.90
2019-05-07T03:34:08.043Z,80.10
2019-05-07T03:36:39.237Z,80.10
2019-05-07T03:39:08.906Z,80.10
2019-05-07T03:41:38.739Z,80.00
2019-05-07T03:44:13.305Z,79.70
2019-05-07T03:46:56.766Z,79.40
2019-05-07T03:49:34.493Z,79.10
2019-05-07T03:52:04.632Z,78.80
2019-05-07T03:54:34.453Z,79.00
2019-05-07T03:57:10.880Z,78.80
2019-05-07T03:59:35.369Z,78.70
2019-05-07T04:02:05.033Z,78.30
2019-05-07T04:04:34.931Z,78.10
2019-05-07T04:07:05.530Z,78.20
2019-05-07T04:09:35.111Z,78.10
2019-05-07T04:12:04.628Z,78.20
2019-05-07T04:14:34.757Z,78.20
2019-05-07T04:17:21.451Z,77.40
2019-05-07T04:19:37.830Z,77.20
2019-05-07T04:22:08.513Z,77.10
2019-05-07T04:24:53.223Z,76.70
2019-05-07T04:27:24.614Z,76.20
2019-05-07T04:29:54.202Z,76.20
2019-05-07T04:32:25.338Z,76.00
2019-05-07T04:34:59.373Z,75.90
2019-05-07T04:37:28.781Z,76.00
2019-05-07T04:39:58.157Z,76.10
2019-05-07T04:42:27.618Z,75.50
2019-05-07T04:44:57.212Z,75.60
2019-05-07T04:47:38.410Z,76.00
2019-05-07T04:49:57.963Z,76.00
2019-05-07T04:52:29.026Z,75.70
2019-05-07T04:54:58.425Z,75.20
2019-05-07T04:57:27.925Z,74.80
2019-05-07T04:59:57.749Z,74.30
2019-05-07T05:02:44.559Z,74.20
2019-05-07T05:05:14.520Z,74.50
2019-05-07T05:07:44.139Z,73.60
2019-05-07T05:10:14.061Z,72.90
2019-05-07T05:12:43.548Z,72.80
2019-05-07T05:15:12.932Z,72.20
2019-05-07T05:17:50.518Z,72.60
2019-05-07T05:20:13.996Z,72.50
2019-05-07T05:23:03.023Z,72.60
2019-05-07T05:25:36.777Z,73.20
2019-05-07T05:28:06.178Z,73.10
2019-05-07T05:30:46.133Z,73.20
2019-05-07T05:33:15.601Z,72.90
2019-05-07T05:35:45.162Z,72.40
2019-05-07T05:38:14.621Z,71.90
2019-05-07T05:40:44.077Z,71.70
2019-05-07T05:43:22.446Z,71.90
2019-05-07T05:45:53.759Z,72.00
2019-05-07T05:48:23.545Z,69.80
2019-05-07T05:50:57.679Z,69.90
2019-05-07T05:53:39.015Z,70.00
2019-05-07T05:56:26.519Z,69.50
2019-05-07T05:59:03.317Z,69.10
2019-05-07T06:01:37.497Z,68.40
2019-05-07T06:04:22.173Z,68.90
2019-05-07T06:07:10.617Z,69.20
2019-05-07T06:09:32.760Z,69.60
2019-05-07T06:12:07.019Z,69.10
2019-05-07T06:14:44.266Z,68.40
2019-05-07T06:17:15.284Z,68.20
2019-05-07T06:20:03.108Z,67.50
2019-05-07T06:22:38.147Z,66.30
2019-05-07T06:25:09.558Z,65.20
2019-05-07T06:27:39.285Z,64.00
2019-05-07T06:30:08.764Z,63.00
2019-05-07T06:32:38.246Z,62.50
2019-05-07T06:35:08.175Z,62.10
2019-05-07T06:37:37.635Z,62.00
2019-05-07T06:40:29.388Z,61.50
2019-05-07T06:43:03.221Z,61.30
2019-05-07T06:45:42.217Z,59.90
2019-05-07T06:48:12.654Z,59.40
2019-05-07T06:50:44.832Z,58.70
2019-05-07T06:53:14.453Z,58.00
2019-05-07T06:55:43.908Z,57.00
2019-05-07T06:58:13.310Z,56.40
2019-05-07T07:00:44.408Z,55.10
2019-05-07T07:03:32.761Z,53.70
2019-05-07T07:06:12.847Z,53.30
2019-05-07T07:08:46.476Z,51.20
2019-05-07T07:11:22.441Z,49.80
2019-05-07T07:13:52.030Z,48.90
2019-05-07T07:16:22.631Z,47.40
2019-05-07T07:18:55.343Z,45.80
2019-05-07T07:21:23.159Z,45.40
2019-05-07T07:23:52.541Z,45.40
2019-05-07T07:26:22.430Z,44.20
2019-05-07T07:28:52.545Z,42.10
2019-05-07T07:31:31.719Z,40.20
2019-05-07T07:34:02.379Z,38.30
2019-05-07T07:36:33.591Z,36.00
2019-05-07T07:39:06.123Z,34.80
2019-05-07T07:41:55.583Z,34.00
2019-05-07T07:44:25.045Z,32.80
2019-05-07T07:46:54.455Z,32.10
2019-05-07T07:49:23.790Z,32.70
2019-05-07T07:51:53.158Z,36.30
2019-05-07T07:54:22.816Z,35.90
2019-05-07T07:57:03.005Z,34.30
2019-05-07T07:59:52.867Z,34.10
2019-05-07T08:02:24.187Z,32.40
2019-05-07T08:04:53.632Z,31.60
2019-05-07T08:07:23.046Z,31.70
2019-05-07T08:09:53.489Z,32.10
2019-05-07T08:12:22.798Z,34.50
2019-05-07T08:14:53.251Z,36.30
2019-05-07T08:17:22.763Z,36.50
2019-05-07T08:19:52.236Z,34.70
2019-05-07T08:22:22.592Z,33.30
2019-05-07T08:24:52.284Z,32.10
2019-05-07T08:27:22.323Z,33.90
2019-05-07T08:29:52.462Z,37.40
2019-05-07T08:32:32.923Z,39.50
2019-05-07T08:35:22.296Z,37.00
2019-05-07T08:37:51.859Z,38.30
2019-05-07T08:40:22.073Z,38.50
2019-05-07T08:42:52.484Z,38.50
2019-05-07T08:45:39.846Z,37.80
2019-05-07T08:48:13.638Z,36.40
2019-05-07T08:50:42.927Z,38.60
2019-05-07T08:53:13.200Z,38.00
2019-05-07T08:55:42.768Z,38.20
2019-05-07T08:58:12.607Z,39.60
2019-05-07T09:00:42.007Z,37.70
2019-05-07T09:03:20.148Z,35.00
2019-05-07T09:05:42.613Z,33.10
2019-05-07T09:08:12.906Z,33.70
2019-05-07T09:10:42.453Z,34.50
2019-05-07T09:13:12.615Z,34.20
2019-05-07T09:15:42.589Z,35.90
2019-05-07T09:18:12.379Z,35.70
2019-05-07T09:20:43.255Z,33.40
2019-05-07T09:23:12.738Z,34.10
2019-05-07T09:25:46.935Z,33.00
2019-05-07T09:28:16.760Z,32.60
2019-05-07T09:30:52.480Z,34.10
2019-05-07T09:33:32.017Z,30.80
2019-05-07T09:36:02.217Z,32.10
2019-05-07T09:38:32.806Z,31.10
2019-05-07T09:41:02.842Z,32.50
2019-05-07T09:43:32.562Z,31.80
2019-05-07T09:46:02.632Z,29.80
2019-05-07T09:48:33.861Z,30.40
2019-05-07T09:51:03.640Z,32.10
2019-05-07T09:53:32.998Z,31.80
2019-05-07T09:56:02.387Z,33.20
2019-05-07T09:58:36.524Z,36.00
2019-05-07T10:01:03.161Z,39.30
2019-05-07T10:03:32.647Z,42.20
2019-05-07T10:06:03.537Z,44.50
2019-05-07T10:08:33.203Z,46.80
2019-05-07T10:11:04.188Z,47.10
2019-05-07T10:13:47.090Z,44.00
2019-05-07T10:16:18.461Z,40.20
2019-05-07T10:18:47.836Z,39.20
2019-05-07T10:21:17.678Z,42.40
2019-05-07T10:23:47.490Z,44.00
2019-05-07T10:26:17.283Z,42.20
2019-05-07T10:28:46.693Z,38.10
2019-05-07T10:31:16.448Z,36.10
2019-05-07T10:33:45.925Z,35.90
2019-05-07T10:36:15.626Z,37.90
2019-05-07T10:38:45.107Z,39.60
2019-05-07T10:41:14.621Z,40.80
2019-05-07T10:43:43.992Z,42.80
2019-05-07T10:46:14.975Z,43.60
2019-05-07T10:48:48.512Z,43.70
2019-05-07T10:51:18.654Z,44.40
2019-05-07T10:53:48.035Z,44.30
2019-05-07T10:56:17.763Z,40.90
2019-05-07T10:58:47.259Z,36.90
2019-05-07T11:01:18.582Z,33.80
2019-05-07T11:03:48.212Z,32.10
2019-05-07T11:06:17.661Z,30.90
2019-05-07T11:08:47.143Z,30.00
2019-05-07T11:11:16.558Z,28.90
2019-05-07T11:13:46.230Z,29.50
2019-05-07T11:16:17.401Z,30.70
2019-05-07T11:18:48.585Z,31.00
2019-05-07T11:21:19.596Z,32.90
2019-05-07T11:23:49.008Z,34.30
2019-05-07T11:26:18.863Z,34.00
2019-05-07T11:28:48.256Z,32.70
2019-05-07T11:31:17.792Z,33.70
2019-05-07T11:33:47.718Z,33.60
2019-05-07T11:36:17.016Z,33.80
2019-05-07T11:38:46.380Z,34.60
2019-05-07T11:41:16.384Z,35.30
2019-05-07T11:43:55.982Z,36.80
2019-05-07T11:46:27.050Z,39.60
2019-05-07T11:48:58.553Z,38.80
2019-05-07T11:51:33.419Z,43.90
2019-05-07T11:54:16.274Z,50.40
2019-05-07T11:56:45.834Z,53.50
2019-05-07T11:59:15.444Z,54.90
2019-05-07T12:01:47.712Z,52.00
2019-05-07T12:04:17.489Z,48.40
2019-05-07T12:06:47.049Z,43.10
2019-05-07T12:09:16.626Z,39.70
2019-05-07T12:11:46.155Z,35.40
2019-05-07T12:14:27.964Z,32.30
2019-05-07T12:16:46.629Z,32.30
2019-05-07T12:19:16.622Z,33.30
2019-05-07T12:21:46.403Z,34.40
2019-05-07T12:24:16.526Z,35.80
2019-05-07T12:26:47.277Z,36.70
2019-05-07T12:29:16.707Z,38.30
2019-05-07T12:31:55.627Z,39.10
2019-05-07T12:34:26.391Z,39.50
2019-05-07T12:36:55.883Z,38.90
2019-05-07T12:39:25.680Z,39.20
2019-05-07T12:41:55.235Z,37.50
2019-05-07T12:44:25.117Z,35.70
2019-05-07T12:46:54.428Z,36.80
2019-05-07T12:49:24.103Z,36.70
2019-05-07T12:51:55.108Z,38.00
2019-05-07T12:54:36.689Z,38.10
2019-05-07T12:57:06.184Z,38.30
2019-05-07T12:59:35.667Z,38.70
2019-05-07T13:02:26.798Z,38.80
2019-05-07T13:04:44.062Z,38.70
2019-05-07T13:07:15.107Z,38.80
2019-05-07T13:09:44.510Z,39.50
2019-05-07T13:12:13.983Z,41.50
2019-05-07T13:14:43.448Z,43.00
2019-05-07T13:17:12.926Z,43.50
2019-05-07T13:19:42.439Z,43.20
2019-05-07T13:22:13.020Z,42.00
2019-05-07T13:24:42.780Z,41.30
2019-05-07T13:27:12.131Z,39.60
2019-05-07T13:29:42.498Z,38.30
2019-05-07T13:32:13.316Z,35.90
2019-05-07T13:34:42.968Z,33.90
2019-05-07T13:37:17.274Z,34.10
2019-05-07T13:39:54.396Z,34.90
2019-05-07T13:42:41.953Z,35.30
2019-05-07T13:45:31.790Z,35.40
2019-05-07T13:48:05.341Z,36.00
2019-05-07T13:50:34.792Z,36.70
2019-05-07T13:53:04.358Z,35.90
2019-05-07T13:55:33.734Z,37.00
2019-05-07T13:58:03.257Z,37.90
2019-05-07T14:00:34.371Z,38.20
2019-05-07T14:03:04.115Z,38.20
2019-05-07T14:05:33.717Z,38.70
2019-05-07T14:08:04.625Z,40.60
2019-05-07T14:10:34.260Z,39.00
2019-05-07T14:13:11.184Z,40.30
2019-05-07T14:15:35.900Z,42.00
2019-05-07T14:18:05.960Z,40.80
2019-05-07T14:20:36.592Z,40.40
2019-05-07T14:23:06.421Z,40.70
2019-05-07T14:25:36.360Z,41.10
2019-05-07T14:28:06.118Z,41.50
2019-05-07T14:30:35.893Z,41.70
2019-05-07T14:33:12.309Z,41.80
2019-05-07T14:35:46.394Z,44.30
2019-05-07T14:38:26.930Z,45.70
2019-05-07T14:40:56.497Z,45.70
2019-05-07T14:43:36.457Z,45.00
2019-05-07T14:46:06.417Z,45.60
2019-05-07T14:48:36.429Z,44.70
2019-05-07T14:51:06.164Z,43.50
2019-05-07T14:53:35.637Z,44.00
2019-05-07T14:56:05.013Z,43.70
2019-05-07T14:58:34.808Z,44.00
2019-05-07T15:01:04.221Z,44.90
2019-05-07T15:03:34.117Z,45.20
2019-05-07T15:06:03.843Z,46.40
2019-05-07T15:08:34.855Z,49.20
2019-05-07T15:11:04.865Z,50.20
2019-05-07T15:13:34.691Z,51.50
2019-05-07T15:16:04.637Z,52.00
2019-05-07T15:18:52.949Z,51.40
2019-05-07T15:21:22.444Z,50.20
2019-05-07T15:23:52.959Z,49.60
2019-05-07T15:26:23.211Z,49.60
2019-05-07T15:29:00.598Z,49.50
2019-05-07T15:31:35.293Z,52.20
2019-05-07T15:34:05.063Z,49.90
2019-05-07T15:36:34.613Z,50.80
2019-05-07T15:39:05.270Z,50.40
2019-05-07T15:41:36.488Z,50.40
2019-05-07T15:44:06.355Z,50.10
2019-05-07T15:46:36.362Z,49.40
2019-05-07T15:49:06.602Z,49.00
2019-05-07T15:51:36.315Z,49.50
2019-05-07T15:54:06.230Z,49.00
2019-05-07T15:56:36.357Z,48.30
2019-05-07T15:59:06.145Z,46.30
2019-05-07T16:01:37.127Z,44.00
2019-05-07T16:04:25.541Z,43.40
2019-05-07T16:06:52.781Z,44.50
2019-05-07T16:09:22.469Z,42.00
2019-05-07T16:11:52.225Z,41.90
2019-05-07T16:14:26.718Z,41.80
2019-05-07T16:16:58.273Z,42.40
2019-05-07T16:19:28.704Z,43.60
2019-05-07T16:22:03.629Z,44.30
2019-05-07T16:24:31.913Z,44.60
2019-05-07T16:27:02.616Z,44.50
2019-05-07T16:29:35.687Z,45.50
2019-05-07T16:32:04.874Z,46.20
2019-05-07T16:34:35.711Z,47.00
2019-05-07T16:37:07.489Z,47.70
2019-05-07T16:39:36.965Z,47.70
2019-05-07T16:42:06.438Z,48.20
2019-05-07T16:44:37.113Z,48.20
2019-05-07T16:47:06.685Z,48.30
2019-05-07T16:49:36.407Z,48.90
2019-05-07T16:52:06.220Z,49.00
2019-05-07T16:54:36.128Z,49.40
2019-05-07T16:57:24.036Z,49.50
2019-05-07T16:59:53.687Z,49.70
2019-05-07T17:02:41.704Z,50.00
2019-05-07T17:05:14.026Z,50.50
2019-05-07T17:08:04.015Z,52.10
2019-05-07T17:10:33.658Z,53.20
2019-05-07T17:13:03.479Z,54.10
2019-05-07T17:15:35.923Z,54.30
2019-05-07T17:18:05.804Z,54.10
2019-05-07T17:20:35.461Z,55.10
2019-05-07T17:23:05.244Z,55.60
2019-05-07T17:25:37.988Z,55.80
2019-05-07T17:28:08.407Z,56.10
2019-05-07T17:30:38.686Z,56.20
2019-05-07T17:33:08.356Z,56.20
2019-05-07T17:35:39.350Z,56.10
2019-05-07T17:38:10.057Z,56.30
2019-05-07T17:40:42.356Z,56.30
2019-05-07T17:43:12.396Z,56.40
2019-05-07T17:45:42.929Z,56.80
2019-05-07T17:48:13.805Z,56.80
2019-05-07T17:50:51.924Z,57.40
2019-05-07T17:53:22.514Z,57.90
2019-05-07T17:55:52.928Z,57.70
2019-05-07T17:58:23.280Z,57.40
2019-05-07T18:01:02.279Z,57.80
2019-05-07T18:03:36.995Z,60.40
2019-05-07T18:06:06.794Z,58.40
2019-05-07T18:08:36.484Z,58.50
2019-05-07T18:11:17.379Z,58.60
2019-05-07T18:13:38.930Z,58.70
2019-05-07T18:16:15.935Z,59.10
2019-05-07T18:18:45.427Z,59.10
2019-05-07T18:21:15.230Z,59.30
2019-05-07T18:23:45.053Z,59.20
2019-05-07T18:26:27.331Z,59.30
2019-05-07T18:28:46.218Z,59.60
2019-05-07T18:31:15.985Z,59.80
2019-05-07T18:33:47.625Z,60.80
2019-05-07T18:36:17.339Z,60.30
2019-05-07T18:38:46.926Z,60.50
2019-05-07T18:41:16.583Z,61.00
2019-05-07T18:43:46.462Z,61.40
2019-05-07T18:46:16.454Z,61.40
2019-05-07T18:48:46.654Z,61.70
2019-05-07T18:51:16.459Z,62.00
2019-05-07T18:53:46.608Z,61.80
2019-05-07T18:56:16.115Z,61.80
2019-05-07T18:58:46.161Z,61.40
2019-05-07T19:01:17.180Z,61.60
2019-05-07T19:03:47.041Z,61.70
2019-05-07T19:06:17.570Z,61.90
2019-05-07T19:08:47.839Z,61.90
2019-05-07T19:11:17.345Z,61.70
2019-05-07T19:13:47.193Z,61.80
2019-05-07T19:16:16.836Z,61.40
2019-05-07T19:18:47.089Z,61.60
2019-05-07T19:21:19.485Z,61.40
2019-05-07T19:23:49.428Z,61.80
2019-05-07T19:26:19.023Z,61.20
2019-05-07T19:28:48.641Z,61.20
2019-05-07T19:31:18.657Z,61.50
2019-05-07T19:33:48.406Z,61.70
2019-05-07T19:36:18.625Z,62.10
2019-05-07T19:38:48.297Z,62.20
2019-05-07T19:41:17.994Z,62.50
2019-05-07T19:43:49.259Z,62.70
2019-05-07T19:46:18.895Z,62.80
2019-05-07T19:48:48.695Z,63.40
2019-05-07T19:51:18.447Z,63.10
2019-05-07T19:53:48.067Z,63.30
2019-05-07T19:56:24.807Z,62.70
2019-05-07T19:58:54.292Z,63.60
2019-05-07T20:01:25.361Z,63.80
2019-05-07T20:03:54.935Z,64.00
2019-05-07T20:06:24.572Z,64.60
2019-05-07T20:08:54.092Z,64.60
2019-05-07T20:11:43.641Z,64.70
2019-05-07T20:14:13.152Z,64.80
2019-05-07T20:16:42.685Z,64.20
2019-05-07T20:19:12.275Z,63.70
2019-05-07T20:21:41.873Z,63.70
2019-05-07T20:24:12.495Z,63.80
2019-05-07T20:26:43.298Z,63.90
2019-05-07T20:29:14.187Z,63.80
2019-05-07T20:31:43.916Z,63.50
2019-05-07T20:34:13.556Z,63.10
2019-05-07T20:36:43.050Z,63.70
2019-05-07T20:39:13.012Z,65.80
2019-05-07T20:41:43.064Z,63.50
2019-05-07T20:44:12.896Z,64.20
2019-05-07T20:46:42.495Z,64.30
2019-05-07T20:49:13.088Z,64.30
2019-05-07T20:51:43.855Z,65.00
2019-05-07T20:54:32.306Z,65.40
2019-05-07T20:57:08.736Z,66.30
2019-05-07T20:59:38.333Z,66.90
2019-05-07T21:02:07.950Z,67.10
2019-05-07T21:04:37.798Z,67.30
2019-05-07T21:07:07.425Z,67.70
2019-05-07T21:09:37.010Z,68.80
2019-05-07T21:12:06.564Z,68.10
2019-05-07T21:14:36.531Z,68.90
2019-05-07T21:17:06.020Z,69.10
2019-05-07T21:19:36.052Z,69.60
2019-05-07T21:22:06.144Z,69.70
2019-05-07T21:24:35.825Z,69.70
2019-05-07T21:27:05.457Z,69.70
2019-05-07T21:29:35.172Z,69.90
2019-05-07T21:32:05.047Z,70.90
2019-05-07T21:34:34.722Z,71.20
2019-05-07T21:37:04.360Z,71.80
2019-05-07T21:39:33.870Z,71.00
2019-05-07T21:42:03.851Z,71.40
2019-05-07T21:44:34.644Z,71.50
2019-05-07T21:47:05.157Z,72.40
2019-05-07T21:49:34.855Z,72.50
2019-05-07T21:52:04.765Z,72.50
2019-05-07T21:54:35.923Z,73.20
2019-05-07T21:57:07.156Z,73.70
2019-05-07T21:59:38.625Z,74.30
2019-05-07T22:02:13.016Z,73.60
2019-05-07T22:04:43.061Z,73.70
2019-05-07T22:07:12.870Z,74.10
2019-05-07T22:09:42.716Z,74.10
2019-05-07T22:12:12.435Z,74.60
2019-05-07T22:14:43.570Z,75.10
2019-05-07T22:17:13.412Z,75.50
2019-05-07T22:19:44.332Z,76.00
2019-05-07T22:22:14.532Z,76.20
2019-05-07T22:24:49.348Z,76.10
2019-05-07T22:27:17.716Z,77.10
2019-05-07T22:29:47.450Z,76.40
2019-05-07T22:32:34.996Z,76.40
2019-05-07T22:35:17.740Z,76.90
2019-05-07T22:37:48.726Z,77.40
2019-05-07T22:40:22.966Z,77.50
2019-05-07T22:42:54.205Z,77.70
2019-05-07T22:45:23.794Z,78.30
2019-05-07T22:47:53.516Z,78.90
2019-05-07T22:50:23.120Z,79.00
2019-05-07T22:52:54.414Z,78.50
2019-05-07T22:55:23.794Z,78.30
2019-05-07T22:58:00.692Z,78.40
2019-05-07T23:00:42.696Z,78.40
2019-05-07T23:03:13.282Z,78.10
2019-05-07T23:05:44.842Z,78.40
2019-05-07T23:08:15.186Z,78.30
2019-05-07T23:10:44.803Z,78.30
2019-05-07T23:13:14.876Z,78.80
2019-05-07T23:15:44.588Z,80.00
2019-05-07T23:18:14.312Z,79.80
2019-05-07T23:20:43.940Z,79.90
2019-05-07T23:23:14.702Z,81.50
2019-05-07T23:25:44.476Z,81.00
2019-05-07T23:28:14.470Z,81.20
2019-05-07T23:30:44.407Z,81.50
2019-05-07T23:33:14.216Z,82.10
2019-05-07T23:35:43.791Z,82.40
2019-05-07T23:38:15.897Z,83.10
2019-05-07T23:41:02.132Z,83.30
2019-05-07T23:43:32.829Z,83.80
2019-05-07T23:46:02.309Z,84.30
2019-05-07T23:48:32.321Z,84.70
2019-05-07T23:51:02.301Z,85.00
2019-05-07T23:53:32.992Z,85.60
2019-05-07T23:56:02.881Z,86.20
2019-05-07T23:58:32.753Z,87.20
